createdAt,value
2022-12-15T00:00:58.157Z,98792.77
2022-12-15T00:04:04.833Z,98789.02
2022-12-15T00:07:11.466Z,98794.36
2022-12-15T00:10:17.883Z,98792.21
2022-12-15T00:13:32.314Z,98802.69
2022-12-15T00:16:39.072Z,98806.13
2022-12-15T00:19:45.799Z,98806.64
2022-12-15T00:22:52.239Z,98801.45
2022-12-15T00:25:58.821Z,98800.70
2022-12-15T00:29:05.333Z,98797.23
2022-12-15T00:32:11.727Z,98800.65
2022-12-15T00:35:18.190Z,98809.27
2022-12-15T00:38:30.345Z,98798.96
2022-12-15T00:41:18.994Z,98799.17
2022-12-15T00:44:06.418Z,98798.14
2022-12-15T00:46:56.698Z,98799.00
2022-12-15T00:50:02.973Z,98800.21
2022-12-15T00:53:09.325Z,98801.77
2022-12-15T00:56:15.510Z,98800.88
2022-12-15T00:59:21.332Z,98798.10
2022-12-15T01:02:27.770Z,98796.16
2022-12-15T01:05:34.361Z,98797.63
2022-12-15T01:08:40.766Z,98795.48
2022-12-15T01:11:47.507Z,98794.20
2022-12-15T01:14:54.893Z,98793.26
2022-12-15T01:18:01.151Z,98786.96
2022-12-15T01:21:05.400Z,98782.42
2022-12-15T01:23:53.811Z,98780.27
2022-12-15T01:26:41.652Z,98782.77
2022-12-15T01:29:29.606Z,98776.70
2022-12-15T01:32:17.524Z,98776.36
2022-12-15T01:35:07.592Z,98771.91
2022-12-15T01:37:55.496Z,98775.55
2022-12-15T01:40:56.065Z,98778.30
2022-12-15T01:43:43.847Z,98772.74
2022-12-15T01:46:31.555Z,98771.56
2022-12-15T01:49:32.290Z,98772.20
2022-12-15T01:52:19.851Z,98773.34
2022-12-15T01:55:07.795Z,98771.86
2022-12-15T01:58:03.757Z,98771.63
2022-12-15T02:00:51.338Z,98774.60
2022-12-15T02:03:39.839Z,98772.66
2022-12-15T02:06:28.587Z,98775.70
2022-12-15T02:09:18.245Z,98777.27
2022-12-15T02:12:17.369Z,98776.27
2022-12-15T02:15:35.816Z,98778.42
2022-12-15T02:18:51.259Z,98782.21
2022-12-15T02:21:56.014Z,98783.92
2022-12-15T02:25:22.664Z,98784.62
2022-12-15T02:28:43.922Z,98785.45
2022-12-15T02:31:51.206Z,98793.69
2022-12-15T02:34:57.221Z,98791.64
2022-12-15T02:37:45.269Z,98795.83
2022-12-15T02:40:37.876Z,98790.36
2022-12-15T02:43:27.822Z,98791.86
2022-12-15T02:46:56.412Z,98784.63
2022-12-15T02:50:08.253Z,98783.05
2022-12-15T02:53:20.277Z,98781.61
2022-12-15T02:56:35.608Z,98780.55
2022-12-15T02:59:41.913Z,98787.02
2022-12-15T03:02:34.737Z,98790.69
2022-12-15T03:05:24.959Z,98788.84
2022-12-15T03:08:12.612Z,98789.76
2022-12-15T03:11:01.969Z,98792.55
2022-12-15T03:13:49.866Z,98795.06
2022-12-15T03:16:37.957Z,98794.81
2022-12-15T03:19:26.013Z,98791.33
2022-12-15T03:22:13.811Z,98791.27
2022-12-15T03:25:01.558Z,98789.30
2022-12-15T03:27:49.567Z,98784.80
2022-12-15T03:30:37.456Z,98792.95
2022-12-15T03:33:25.007Z,98787.89
2022-12-15T03:36:12.456Z,98784.66
2022-12-15T03:39:00.369Z,98796.45
2022-12-15T03:41:47.740Z,98798.03
2022-12-15T03:44:35.247Z,98796.14
2022-12-15T03:47:23.153Z,98796.29
2022-12-15T03:50:13.273Z,98804.39
2022-12-15T03:53:03.536Z,98805.14
2022-12-15T03:55:51.435Z,98808.92
2022-12-15T03:58:39.607Z,98806.48
2022-12-15T04:01:33.759Z,98803.19
2022-12-15T04:04:21.873Z,98803.83
2022-12-15T04:07:09.542Z,98801.53
2022-12-15T04:09:57.162Z,98798.58
2022-12-15T04:12:44.721Z,98798.73
2022-12-15T04:15:33.575Z,98801.63
2022-12-15T04:18:21.305Z,98797.43
2022-12-15T04:21:09.086Z,98798.25
2022-12-15T04:24:15.326Z,98800.95
2022-12-15T04:27:21.319Z,98803.18
2022-12-15T04:30:28.424Z,98794.24
2022-12-15T04:33:35.948Z,98790.27
2022-12-15T04:36:42.898Z,98792.48
2022-12-15T04:39:49.727Z,98790.74
2022-12-15T04:43:05.720Z,98793.40
2022-12-15T04:46:12.206Z,98794.44
2022-12-15T04:49:18.726Z,98797.52
2022-12-15T04:52:25.142Z,98803.66
2022-12-15T04:55:31.617Z,98807.86
2022-12-15T04:58:38.088Z,98810.27
2022-12-15T05:01:44.487Z,98808.03
2022-12-15T05:04:50.677Z,98805.73
2022-12-15T05:07:57.009Z,98808.00
2022-12-15T05:11:03.170Z,98820.02
2022-12-15T05:14:09.388Z,98830.02
2022-12-15T05:17:16.022Z,98831.84
2022-12-15T05:20:22.939Z,98828.98
2022-12-15T05:23:29.698Z,98830.61
2022-12-15T05:26:35.926Z,98828.54
2022-12-15T05:29:42.226Z,98831.48
2022-12-15T05:32:33.249Z,98833.79
2022-12-15T05:35:21.263Z,98834.73
2022-12-15T05:38:09.427Z,98833.60
2022-12-15T05:40:59.568Z,98830.88
2022-12-15T05:43:47.783Z,98831.92
2022-12-15T05:46:35.798Z,98834.38
2022-12-15T05:49:23.562Z,98840.07
2022-12-15T05:52:11.343Z,98850.38
2022-12-15T05:54:59.400Z,98850.65
2022-12-15T05:57:54.362Z,98848.35
2022-12-15T06:00:41.735Z,98857.95
2022-12-15T06:03:33.921Z,98865.27
2022-12-15T06:06:28.591Z,98870.20
2022-12-15T06:09:16.403Z,98871.18
2022-12-15T06:12:04.421Z,98884.66
2022-12-15T06:14:54.557Z,98890.38
2022-12-15T06:17:57.740Z,98893.48
2022-12-15T06:20:45.361Z,98891.42
2022-12-15T06:23:37.979Z,98890.02
2022-12-15T06:26:40.508Z,98894.23
2022-12-15T06:29:28.078Z,98899.63
2022-12-15T06:32:15.880Z,98900.45
2022-12-15T06:35:03.759Z,98903.66
2022-12-15T06:37:51.355Z,98910.51
2022-12-15T06:40:39.644Z,98911.02
2022-12-15T06:43:29.084Z,98918.67
2022-12-15T06:46:17.297Z,98926.52
2022-12-15T06:49:05.548Z,98916.92
2022-12-15T06:51:53.344Z,98917.98
2022-12-15T06:54:40.911Z,98917.33
2022-12-15T06:57:28.672Z,98930.39
2022-12-15T07:00:16.870Z,98933.36
2022-12-15T07:03:10.294Z,98934.46
2022-12-15T07:06:09.521Z,98934.50
2022-12-15T07:08:57.157Z,98935.73
2022-12-15T07:11:46.483Z,98938.86
2022-12-15T07:14:34.090Z,98940.93
2022-12-15T07:17:21.660Z,98942.45
2022-12-15T07:20:11.078Z,98943.64
2022-12-15T07:22:58.971Z,98948.81
2022-12-15T07:25:46.775Z,98957.95
2022-12-15T07:28:38.307Z,98963.06
2022-12-15T07:31:25.954Z,98966.25
2022-12-15T07:34:13.956Z,98969.60
2022-12-15T07:37:01.916Z,98976.21
2022-12-15T07:39:49.880Z,98981.48
2022-12-15T07:42:37.404Z,98987.42
2022-12-15T07:45:26.384Z,98987.70
2022-12-15T07:48:14.178Z,98989.33
2022-12-15T07:51:17.152Z,98992.12
2022-12-15T07:54:07.732Z,98995.77
2022-12-15T07:56:55.764Z,98992.92
2022-12-15T07:59:43.642Z,98982.42
2022-12-15T08:02:32.322Z,98990.55
2022-12-15T08:05:20.104Z,98993.20
2022-12-15T08:08:13.713Z,98991.06
2022-12-15T08:11:13.607Z,98992.40
2022-12-15T08:14:03.023Z,98994.66
2022-12-15T08:16:51.999Z,98995.36
2022-12-15T08:19:39.469Z,98996.97
2022-12-15T08:22:27.143Z,99003.61
2022-12-15T08:25:14.853Z,99010.52
2022-12-15T08:28:02.404Z,99000.90
2022-12-15T08:30:49.985Z,99003.02
2022-12-15T08:33:38.991Z,98995.55
2022-12-15T08:36:26.563Z,98992.65
2022-12-15T08:39:14.295Z,98990.54
2022-12-15T08:42:01.656Z,98990.48
2022-12-15T08:44:50.366Z,98991.92
2022-12-15T08:47:38.731Z,98991.34
2022-12-15T08:50:26.233Z,98990.77
2022-12-15T08:53:30.819Z,98988.89
2022-12-15T08:56:21.704Z,98988.95
2022-12-15T08:59:09.876Z,98984.83
2022-12-15T09:01:59.482Z,98980.91
2022-12-15T09:04:47.440Z,98984.06
2022-12-15T09:07:35.589Z,98980.91
2022-12-15T09:10:24.134Z,98979.56
2022-12-15T09:13:11.568Z,98979.73
2022-12-15T09:16:10.216Z,98978.25
2022-12-15T09:19:03.436Z,98976.79
2022-12-15T09:21:51.005Z,98984.64
2022-12-15T09:24:38.804Z,98987.70
2022-12-15T09:27:26.164Z,98990.27
2022-12-15T09:30:14.432Z,98990.60
2022-12-15T09:33:01.998Z,98986.76
2022-12-15T09:35:51.725Z,98980.98
2022-12-15T09:38:41.658Z,98976.73
2022-12-15T09:41:35.529Z,98977.48
2022-12-15T09:44:25.715Z,98978.45
2022-12-15T09:47:30.395Z,98986.11
2022-12-15T09:50:26.209Z,98986.21
2022-12-15T09:53:53.070Z,98986.34
2022-12-15T09:56:40.739Z,98983.40
2022-12-15T09:59:47.292Z,98975.83
2022-12-15T10:03:23.089Z,98973.02
2022-12-15T10:06:32.958Z,98977.23
2022-12-15T10:09:29.079Z,98982.64
2022-12-15T10:12:27.123Z,98977.43
2022-12-15T10:15:30.812Z,98976.94
2022-12-15T10:18:26.709Z,98968.59
2022-12-15T10:21:14.802Z,98961.92
2022-12-15T10:25:08.122Z,98958.65
2022-12-15T10:28:19.089Z,98957.33
2022-12-15T10:31:18.910Z,98962.10
2022-12-15T10:34:24.101Z,98967.34
2022-12-15T10:37:21.143Z,98969.66
2022-12-15T10:40:14.792Z,98974.16
2022-12-15T10:43:14.438Z,98976.79
2022-12-15T10:46:22.111Z,98975.62
2022-12-15T10:49:09.892Z,98967.86
2022-12-15T10:52:01.194Z,98964.33
2022-12-15T10:54:52.731Z,98961.48
2022-12-15T10:57:58.451Z,98964.82
2022-12-15T11:00:46.604Z,98963.26
2022-12-15T11:03:39.969Z,98970.88
2022-12-15T11:06:34.018Z,98970.50
2022-12-15T11:09:36.701Z,98975.27
2022-12-15T11:12:50.624Z,98976.16
2022-12-15T11:15:51.753Z,98976.80
2022-12-15T11:18:53.903Z,98975.20
2022-12-15T11:21:52.003Z,98971.17
2022-12-15T11:24:50.964Z,98970.70
2022-12-15T11:27:44.113Z,98965.71
2022-12-15T11:30:42.543Z,98964.71
2022-12-15T11:33:30.465Z,98965.36
2022-12-15T11:36:36.922Z,98965.30
2022-12-15T11:39:55.391Z,98973.41
2022-12-15T11:43:18.856Z,98980.29
2022-12-15T11:46:43.040Z,98986.33
2022-12-15T11:50:06.306Z,98993.28
2022-12-15T11:53:40.512Z,98998.69
2022-12-15T11:56:39.456Z,99001.09
2022-12-15T11:59:57.492Z,99001.17
2022-12-15T12:03:23.096Z,99004.02
2022-12-15T12:06:16.952Z,99001.24
2022-12-15T12:09:30.120Z,99001.40
2022-12-15T12:12:40.228Z,99006.52
2022-12-15T12:15:55.710Z,99013.20
2022-12-15T12:19:06.103Z,99016.16
2022-12-15T12:22:03.738Z,99023.55
2022-12-15T12:24:57.642Z,99031.84
2022-12-15T12:28:14.312Z,99036.05
2022-12-15T12:31:03.767Z,99035.13
2022-12-15T12:33:55.851Z,99044.04
2022-12-15T12:36:45.212Z,99046.04
2022-12-15T12:39:37.676Z,99046.40
2022-12-15T12:42:40.592Z,99046.73
2022-12-15T12:45:33.756Z,99046.27
2022-12-15T12:48:58.476Z,99045.95
2022-12-15T12:51:53.756Z,99044.75
2022-12-15T12:54:44.758Z,99040.66
2022-12-15T12:57:37.704Z,99049.36
2022-12-15T13:00:31.311Z,99051.58
2022-12-15T13:03:21.645Z,99055.75
2022-12-15T13:06:34.324Z,99057.60
2022-12-15T13:09:25.340Z,99062.95
2022-12-15T13:12:55.245Z,99063.12
2022-12-15T13:15:50.819Z,99069.74
2022-12-15T13:19:56.525Z,99073.14
2022-12-15T13:22:44.491Z,99072.90
2022-12-15T13:25:41.857Z,99079.34
2022-12-15T13:28:44.492Z,99087.55
2022-12-15T13:31:43.207Z,99088.33
2022-12-15T13:34:40.977Z,99090.47
2022-12-15T13:37:50.908Z,99095.11
2022-12-15T13:40:38.582Z,99095.21
2022-12-15T13:43:29.670Z,99096.04
2022-12-15T13:46:25.083Z,99098.58
2022-12-15T13:49:21.400Z,99100.42
2022-12-15T13:53:19.080Z,99095.81
2022-12-15T13:56:10.800Z,99099.23
2022-12-15T13:59:07.549Z,99099.09
2022-12-15T14:01:55.307Z,99099.84
2022-12-15T14:04:42.951Z,99116.67
2022-12-15T14:07:30.451Z,99118.61
2022-12-15T14:10:42.532Z,99116.73
2022-12-15T14:13:35.574Z,99121.86
2022-12-15T14:16:35.418Z,99120.21
2022-12-15T14:19:23.697Z,99121.88
2022-12-15T14:22:28.122Z,99126.96
2022-12-15T14:25:29.455Z,99128.55
2022-12-15T14:28:34.020Z,99129.30
2022-12-15T14:31:24.367Z,99129.65
2022-12-15T14:34:25.169Z,99134.49
2022-12-15T14:37:20.224Z,99140.00
2022-12-15T14:40:17.032Z,99143.93
2022-12-15T14:43:11.752Z,99149.02
2022-12-15T14:46:16.701Z,99149.80
2022-12-15T14:49:09.111Z,99155.27
2022-12-15T14:52:05.227Z,99153.46
2022-12-15T14:54:57.708Z,99152.83
2022-12-15T14:57:46.947Z,99152.40
2022-12-15T15:00:48.775Z,99149.59
2022-12-15T15:03:40.882Z,99149.19
2022-12-15T15:06:57.140Z,99148.59
2022-12-15T15:09:46.686Z,99157.92
2022-12-15T15:13:00.562Z,99153.70
2022-12-15T15:16:00.966Z,99161.25
2022-12-15T15:18:56.148Z,99166.89
2022-12-15T15:21:46.287Z,99170.80
2022-12-15T15:24:39.773Z,99175.23
2022-12-15T15:27:40.042Z,99168.88
2022-12-15T15:30:27.528Z,99178.40
2022-12-15T15:33:16.033Z,99179.70
2022-12-15T15:36:10.865Z,99179.83
2022-12-15T15:38:59.446Z,99178.95
2022-12-15T15:41:47.275Z,99177.84
2022-12-15T15:44:35.532Z,99185.77
2022-12-15T15:47:27.381Z,99189.89
2022-12-15T15:50:21.427Z,99188.73
2022-12-15T15:53:18.731Z,99188.98
2022-12-15T15:56:10.595Z,99194.88
2022-12-15T15:59:09.480Z,99197.70
2022-12-15T16:01:59.281Z,99204.61
2022-12-15T16:04:46.979Z,99207.04
2022-12-15T16:07:34.909Z,99212.25
2022-12-15T16:10:22.766Z,99204.27
2022-12-15T16:13:11.429Z,99211.61
2022-12-15T16:15:59.266Z,99212.61
2022-12-15T16:18:47.230Z,99216.08
2022-12-15T16:21:36.234Z,99219.69
2022-12-15T16:24:23.938Z,99226.91
2022-12-15T16:27:13.443Z,99233.96
2022-12-15T16:30:01.486Z,99236.09
2022-12-15T16:32:50.615Z,99235.78
2022-12-15T16:35:39.688Z,99234.61
2022-12-15T16:38:32.689Z,99239.31
2022-12-15T16:41:23.355Z,99231.48
2022-12-15T16:44:12.581Z,99248.45
2022-12-15T16:47:00.211Z,99250.70
2022-12-15T16:49:47.884Z,99250.20
2022-12-15T16:52:35.630Z,99252.98
2022-12-15T16:55:38.126Z,99259.20
2022-12-15T16:58:30.552Z,99263.73
2022-12-15T17:01:18.774Z,99267.18
2022-12-15T17:04:07.159Z,99271.34
2022-12-15T17:06:55.165Z,99269.65
2022-12-15T17:09:43.143Z,99279.09
2022-12-15T17:12:31.808Z,99281.06
2022-12-15T17:15:26.373Z,99284.08
2022-12-15T17:18:15.028Z,99272.98
2022-12-15T17:21:18.756Z,99271.19
2022-12-15T17:24:13.966Z,99276.25
2022-12-15T17:27:02.486Z,99274.13
2022-12-15T17:29:50.342Z,99278.60
2022-12-15T17:32:38.197Z,99273.13
2022-12-15T17:35:25.783Z,99274.55
2022-12-15T17:38:19.757Z,99278.85
2022-12-15T17:41:35.132Z,99277.13
2022-12-15T17:44:32.988Z,99278.23
2022-12-15T17:47:24.250Z,99280.86
2022-12-15T17:50:13.231Z,99285.23
2022-12-15T17:53:03.467Z,99275.50
2022-12-15T17:55:53.527Z,99273.70
2022-12-15T17:58:42.482Z,99275.04
2022-12-15T18:01:30.049Z,99270.52
2022-12-15T18:04:17.858Z,99271.09
2022-12-15T18:07:05.505Z,99282.27
2022-12-15T18:09:53.674Z,99278.14
2022-12-15T18:12:41.520Z,99282.99
2022-12-15T18:15:32.592Z,99284.15
2022-12-15T18:18:22.867Z,99287.05
2022-12-15T18:21:17.022Z,99291.14
2022-12-15T18:24:17.539Z,99300.42
2022-12-15T18:27:33.681Z,99305.60
2022-12-15T18:30:27.090Z,99309.63
2022-12-15T18:33:15.468Z,99308.16
2022-12-15T18:36:03.003Z,99316.83
2022-12-15T18:38:51.267Z,99324.64
2022-12-15T18:41:39.563Z,99334.49
2022-12-15T18:44:31.827Z,99337.37
2022-12-15T18:47:23.299Z,99348.00
2022-12-15T18:50:25.764Z,99355.45
2022-12-15T18:53:21.512Z,99359.23
2022-12-15T18:56:14.512Z,99362.85
2022-12-15T18:59:02.165Z,99373.40
2022-12-15T19:01:50.876Z,99377.54
2022-12-15T19:04:39.166Z,99380.95
2022-12-15T19:07:27.716Z,99374.72
2022-12-15T19:10:15.587Z,99375.58
2022-12-15T19:13:03.974Z,99379.51
2022-12-15T19:15:53.489Z,99373.34
2022-12-15T19:18:59.827Z,99392.89
2022-12-15T19:22:07.118Z,99396.61
2022-12-15T19:24:54.973Z,99403.16
2022-12-15T19:27:42.599Z,99406.33
2022-12-15T19:30:41.642Z,99406.57
2022-12-15T19:33:30.347Z,99402.52
2022-12-15T19:36:24.329Z,99404.41
2022-12-15T19:39:23.486Z,99399.49
2022-12-15T19:42:24.081Z,99406.41
2022-12-15T19:45:27.787Z,99402.73
2022-12-15T19:48:21.625Z,99414.77
2022-12-15T19:51:24.275Z,99419.79
2022-12-15T19:54:19.535Z,99419.29
2022-12-15T19:57:14.704Z,99422.90
2022-12-15T20:00:06.559Z,99429.41
2022-12-15T20:02:59.935Z,99427.67
2022-12-15T20:05:52.121Z,99434.54
2022-12-15T20:08:42.740Z,99434.92
2022-12-15T20:11:33.194Z,99436.14
2022-12-15T20:14:21.644Z,99444.58
2022-12-15T20:17:09.357Z,99444.58
2022-12-15T20:19:57.354Z,99444.39
2022-12-15T20:22:47.399Z,99448.00
2022-12-15T20:25:38.003Z,99450.84
2022-12-15T20:28:29.459Z,99454.43
2022-12-15T20:31:22.036Z,99448.54
2022-12-15T20:34:10.369Z,99449.33
2022-12-15T20:36:58.450Z,99446.53
2022-12-15T20:39:48.038Z,99449.94
2022-12-15T20:42:38.720Z,99456.48
2022-12-15T20:45:30.542Z,99454.08
2022-12-15T20:48:19.904Z,99452.09
2022-12-15T20:51:31.758Z,99458.80
2022-12-15T20:54:22.108Z,99457.77
2022-12-15T20:57:09.995Z,99462.77
2022-12-15T20:59:59.138Z,99464.63
2022-12-15T21:02:51.816Z,99463.06
2022-12-15T21:05:42.015Z,99463.88
2022-12-15T21:08:32.374Z,99459.36
2022-12-15T21:11:37.259Z,99463.06
2022-12-15T21:14:26.639Z,99467.49
2022-12-15T21:17:21.138Z,99466.98
2022-12-15T21:20:10.441Z,99464.02
2022-12-15T21:22:58.372Z,99467.12
2022-12-15T21:25:46.114Z,99477.09
2022-12-15T21:28:34.275Z,99484.10
2022-12-15T21:31:23.671Z,99482.66
2022-12-15T21:34:11.770Z,99475.54
2022-12-15T21:36:59.919Z,99475.48
2022-12-15T21:39:47.669Z,99477.87
2022-12-15T21:42:36.641Z,99482.68
2022-12-15T21:45:26.275Z,99486.66
2022-12-15T21:48:32.803Z,99486.31
2022-12-15T21:51:25.198Z,99489.23
2022-12-15T21:54:28.805Z,99491.09
2022-12-15T21:57:18.996Z,99491.56
2022-12-15T22:00:14.663Z,99487.91
2022-12-15T22:03:02.301Z,99490.79
2022-12-15T22:05:50.298Z,99497.48
2022-12-15T22:08:38.205Z,99501.09
2022-12-15T22:11:28.496Z,99498.66
2022-12-15T22:14:29.732Z,99505.71
2022-12-15T22:17:21.709Z,99510.86
2022-12-15T22:20:21.903Z,99513.02
2022-12-15T22:23:09.349Z,99513.27
2022-12-15T22:25:57.133Z,99509.23
2022-12-15T22:28:44.999Z,99514.15
2022-12-15T22:31:32.474Z,99516.66
2022-12-15T22:34:23.699Z,99519.20
2022-12-15T22:37:11.409Z,99520.93
2022-12-15T22:39:59.187Z,99526.80
2022-12-15T22:42:54.879Z,99534.55
2022-12-15T22:45:43.246Z,99526.47
2022-12-15T22:48:37.061Z,99535.27
2022-12-15T22:51:25.257Z,99534.80
2022-12-15T22:54:22.928Z,99539.92
2022-12-15T22:57:22.256Z,99534.58
2022-12-15T23:00:11.727Z,99538.23
2022-12-15T23:02:59.812Z,99533.77
2022-12-15T23:05:47.770Z,99533.33
2022-12-15T23:08:35.468Z,99532.38
2022-12-15T23:11:39.674Z,99523.44
2022-12-15T23:15:06.408Z,99529.95
2022-12-15T23:17:53.934Z,99529.18
2022-12-15T23:20:43.033Z,99533.88
2022-12-15T23:23:32.846Z,99532.86
2022-12-15T23:26:26.132Z,99535.82
2022-12-15T23:29:14.366Z,99538.80
2022-12-15T23:32:01.788Z,99539.91
2022-12-15T23:34:49.655Z,99547.23
2022-12-15T23:37:37.290Z,99547.80
2022-12-15T23:40:25.039Z,99556.42
2022-12-15T23:43:12.982Z,99562.30
2022-12-15T23:46:05.468Z,99565.26
2022-12-15T23:48:53.282Z,99573.74
2022-12-15T23:51:42.746Z,99569.96
2022-12-15T23:54:30.529Z,99567.35
2022-12-15T23:57:18.539Z,99560.41
